Ana Sayfa
METAR-TAF:

METAR-TAF

Havaalanları :

Larnaka Uluslararası Havalimanı

Larnaka, Kıbrıs

Enlem: 34-53N, Boylam: 033-38E, yükseklik: 2 m

Güncel hava durumu gözlemi

Rapor saat 06:30 UTC de 37 dakika önce yapıldı.
Rüzgar batıdan 8 kt
Sıcaklık 18°C
Nem 56%
Basınç 1013 hPa
Görüş mesafesi 10 km veya daha fazla
1500 m altında bulut yok ve kümülonimbus yok

METAR: LCLK 250630Z 28008KT CAVOK 18/09 Q1013 NOSIG

Saat: 09:07 (07:07 UTC)

Tahmin

Rapor saat 05:30 UTC de 1 saat ve 37 dakika önce yapıldı.
Ayın 25'si saat 06 UTC'den ayın 26'si saat 06 UTC'ye kadar geçerli Tahmin
Rüzgar batı/kuzeybatıdan 7 kt
Görüş mesafesi 10 km veya daha fazla
3000 ft yükseklikte az bulutlu
Dönüşüyor
ayın 25'si saat 07 UTC'den ayın 25'si saat 10 UTC'ye kadar
Rüzgar kuzeydan 11 kt
Dönüşüyor
ayın 25'si saat 17 UTC'den ayın 25'si saat 20 UTC'ye kadar
Rüzgar batı/kuzeybatıdan 6 kt

TAF: LCLK 250530Z 2506/2606 29007KT 9999 FEW030 BECMG 2507/2510 35011KT BECMG 2517/2520 29006KT

4.000'den fazla havaalanı için hava durumu gözlemleri ve tahminleri (METAR ve TAF raporları).

Kullanılabilir istasyonlar harita üzerinde sarı ve kırmızı noktalarla gösterilir.

İstasyonun adını görmek için fareyi noktanın üzerinde gezdirin.

Sonrasında hava gözlem ve tahminlerini görmek için tıklayın.

Haritayı değiştirmek için: yaklaştırmak için siyah artı işaretli yeşil düğmeye ve uzaklaştırmak için de eksi işaretli düğmeye hızla tıklayın; bitişik haritalar için yeşil okları kullanın.


METAR-TAF: